Terminal Aerodrome Forecast
Issued by NWS

Home | Current Version | Previous Version | Text Only | Print | Product List | Glossary On
Versions: 1 2 3 4 5 6 7 8 9 10 11 12 13 14 15 16
000
FTUS42 KMLB 221800 AAA
TAFTIX
TAF AMD
KTIX 221805Z 2218/2318 06010KT P6SM VCTS SCT020CB BKN070
      TEMPO 2218/2219 TSRA BKN025CB
     FM230000 17005KT P6SM FEW020 SCT100 OVC250
     FM230400 18003KT P6SM FEW020 SCT250
     FM231400 19003KT P6SM SCT020 SCT050=

USA.gov is the U.S. government's official web portal to all federal, state and local government web resources and services.